Time;durP1;ratioP1;P1;durP2;ratioP2;P2;SDS_P1;SDS_P2;PMS_P1;PMS_P2;Temp;Humidity;BMP_temperature;BMP_pressure;BME280_temperature;BME280_humidity;BME280_pressure;Samples;Min_cycle;Max_cycle;Signal;HPM_P1;HPM_P2
2024/01/20 00:01:21;;;;;;;71.37;26.43;;;;;;;-145.18;100.00;46900.66;5034976;28;20086;-83
2024/01/20 00:03:47;;;;;;;73.07;26.87;;;;;;;-145.18;100.00;46900.66;5035461;28;20068;-83
2024/01/20 00:06:12;;;;;;;65.73;25.23;;;;;;;-145.18;100.00;46902.63;5034556;28;20077;-83
2024/01/20 00:08:38;;;;;;;68.70;26.57;;;;;;;-145.18;100.00;46898.72;5035369;28;20056;-83
2024/01/20 00:11:03;;;;;;;67.30;26.90;;;;;;;-145.18;100.00;46904.56;5033241;28;20026;-83
2024/01/20 00:13:29;;;;;;;67.60;26.07;;;;;;;-145.18;100.00;46902.63;5034744;28;20041;-84
2024/01/20 00:15:54;;;;;;;75.73;27.90;;;;;;;-145.18;100.00;46896.75;5034967;28;20034;-83
2024/01/20 00:18:19;;;;;;;77.70;28.47;;;;;;;-145.18;100.00;46898.72;5034524;28;20061;-83
2024/01/20 00:20:46;;;;;;;65.33;24.50;;;;;;;-145.18;100.00;46900.66;5035132;28;20112;-83
2024/01/20 00:23:12;;;;;;;72.57;25.88;;;;;;;-145.18;100.00;46904.56;5035295;28;20116;-83
2024/01/20 00:25:39;;;;;;;69.07;25.95;;;;;;;-145.18;100.00;46902.63;5016917;28;20041;-83
2024/01/20 00:28:04;;;;;;;72.53;26.98;;;;;;;-145.18;100.00;46902.63;5034904;28;20037;-83
2024/01/20 00:30:30;;;;;;;67.10;25.93;;;;;;;-145.18;100.00;46904.56;5034466;28;20403;-84
2024/01/20 00:32:55;;;;;;;71.07;25.63;;;;;;;-145.18;100.00;46902.63;5035136;28;20459;-83
2024/01/20 00:35:21;;;;;;;60.83;23.97;;;;;;;-145.18;100.00;46900.66;5034340;28;20065;-83
2024/01/20 00:37:46;;;;;;;63.90;24.93;;;;;;;-145.18;100.00;46902.63;5032753;28;20037;-83
2024/01/20 00:40:11;;;;;;;68.57;25.07;;;;;;;-145.18;100.00;46908.47;5034966;28;20041;-83
2024/01/20 00:42:37;;;;;;;69.43;23.10;;;;;;;-145.18;100.00;46900.66;5033460;28;20041;-83
2024/01/20 00:45:04;;;;;;;68.97;25.87;;;;;;;-145.18;100.00;46900.66;5034180;28;20038;-83
2024/01/20 00:47:30;;;;;;;82.40;27.88;;;;;;;-145.18;100.00;46906.53;5033746;28;20045;-83
2024/01/20 00:49:55;;;;;;;76.97;26.73;;;;;;;-145.18;100.00;46902.63;5033990;28;20041;-83
2024/01/20 00:52:21;;;;;;;69.70;25.37;;;;;;;-145.18;100.00;46900.66;5034017;28;20033;-83
2024/01/20 00:54:46;;;;;;;72.27;25.53;;;;;;;-145.18;100.00;46906.53;5033285;28;20026;-83
2024/01/20 00:57:11;;;;;;;69.83;25.47;;;;;;;-145.18;100.00;46906.53;5033775;28;20528;-83
2024/01/20 00:59:37;;;;;;;75.53;26.23;;;;;;;-145.18;100.00;46904.56;5033965;28;20069;-83
2024/01/20 01:02:02;;;;;;;67.33;25.33;;;;;;;-145.18;100.00;46900.66;5034570;28;20099;-83
2024/01/20 01:04:28;;;;;;;60.23;23.03;;;;;;;-145.18;100.00;46900.66;5033585;28;20125;-83
2024/01/20 01:06:53;;;;;;;72.63;27.30;;;;;;;-145.18;100.00;46898.72;5032234;28;20495;-83
2024/01/20 01:09:18;;;;;;;70.50;24.67;;;;;;;-145.18;100.00;46902.63;5034288;28;20033;-83
2024/01/20 01:11:46;;;;;;;62.77;24.50;;;;;;;-145.18;100.00;46904.56;5033795;28;20063;-83
2024/01/20 01:14:11;;;;;;;73.45;25.27;;;;;;;-145.18;100.00;46904.56;5034035;28;20034;-83
2024/01/20 01:16:37;;;;;;;63.63;23.67;;;;;;;-145.18;100.00;46906.53;5033646;28;20038;-83
2024/01/20 01:19:02;;;;;;;70.47;26.23;;;;;;;-145.18;100.00;46906.53;5033658;28;20040;-82
2024/01/20 01:21:28;;;;;;;70.90;25.30;;;;;;;-145.18;100.00;46906.53;5033860;28;20470;-82
2024/01/20 01:23:53;;;;;;;74.43;25.33;;;;;;;-145.18;100.00;46906.53;5016087;28;20382;-83
2024/01/20 01:26:19;;;;;;;56.13;22.37;;;;;;;-145.18;100.00;46908.47;5034190;28;20041;-82
2024/01/20 01:28:45;;;;;;;66.60;24.83;;;;;;;-145.18;100.00;46910.44;5033844;28;20045;-83
2024/01/20 01:31:11;;;;;;;63.00;22.83;;;;;;;-145.18;100.00;46904.56;5033471;28;20115;-83
2024/01/20 01:33:36;;;;;;;62.87;21.53;;;;;;;-145.18;100.00;46904.56;5033327;28;20494;-82
2024/01/20 01:36:02;;;;;;;74.10;25.57;;;;;;;-145.18;100.00;46902.63;5033481;28;20367;-81
2024/01/20 01:38:28;;;;;;;69.70;24.15;;;;;;;-145.18;100.00;46906.53;5033703;28;20052;-81
2024/01/20 01:40:53;;;;;;;67.43;23.93;;;;;;;-145.18;100.00;46906.53;5033693;28;20469;-81
2024/01/20 01:43:18;;;;;;;61.30;25.03;;;;;;;-145.18;100.00;46908.47;5033120;28;20545;-81
2024/01/20 01:45:44;;;;;;;74.23;26.33;;;;;;;-145.18;100.00;46908.47;5033587;28;20088;-81
2024/01/20 01:48:09;;;;;;;65.10;24.73;;;;;;;-145.18;100.00;46902.63;5033595;28;20425;-81
2024/01/20 01:50:35;;;;;;;70.50;24.30;;;;;;;-145.18;100.00;46908.47;5033464;28;20052;-81
2024/01/20 01:53:01;;;;;;;62.08;24.38;;;;;;;-145.18;100.00;46904.56;5033873;28;20079;-81
2024/01/20 01:55:27;;;;;;;65.90;23.17;;;;;;;-145.18;100.00;46906.53;5033202;28;20042;-80
2024/01/20 01:57:53;;;;;;;59.43;22.67;;;;;;;-145.18;100.00;46902.63;5033924;28;20034;-80
2024/01/20 02:00:19;;;;;;;69.88;23.05;;;;;;;-145.18;100.00;46906.53;5037636;28;20044;-81
2024/01/20 02:02:44;;;;;;;59.60;21.60;;;;;;;-145.18;100.00;46904.56;5037520;28;20132;-81
2024/01/20 02:05:10;;;;;;;66.30;24.37;;;;;;;-145.18;100.00;46906.53;5037607;28;20045;-81
2024/01/20 02:07:38;;;;;;;61.10;22.27;;;;;;;-145.18;100.00;46902.63;5037362;28;20053;-81
2024/01/20 02:10:07;;;;;;;67.10;24.10;;;;;;;-145.18;100.00;46906.53;5037342;28;20072;-81
2024/01/20 02:12:34;;;;;;;65.63;24.45;;;;;;;-145.18;100.00;46906.53;5037520;28;20467;-81
2024/01/20 02:14:59;;;;;;;70.35;25.50;;;;;;;-145.18;100.00;46900.66;5036663;28;20037;-81
2024/01/20 02:17:25;;;;;;;67.10;24.00;;;;;;;-145.18;100.00;46906.53;5037001;28;20037;-81
2024/01/20 02:19:50;;;;;;;74.80;25.97;;;;;;;-145.18;100.00;46904.56;5037093;28;20033;-81
2024/01/20 02:22:16;;;;;;;64.67;23.90;;;;;;;-145.18;100.00;46902.63;5037425;28;20172;-81
2024/01/20 02:24:49;;;;;;;71.18;24.63;;;;;;;-145.18;100.00;46906.53;5037064;28;20022;-81
2024/01/20 02:27:17;;;;;;;73.78;26.25;;;;;;;-145.18;100.00;46906.53;5036991;28;20037;-81
2024/01/20 02:29:42;;;;;;;74.03;23.65;;;;;;;-145.18;100.00;46908.47;5036585;28;20069;-81
2024/01/20 02:32:08;;;;;;;69.27;23.93;;;;;;;-145.18;100.00;46908.47;5036401;28;20065;-81
2024/01/20 02:34:33;;;;;;;68.30;23.97;;;;;;;-145.18;100.00;46906.53;5036672;28;20074;-81
2024/01/20 02:36:59;;;;;;;71.93;25.57;;;;;;;-145.18;100.00;46902.63;5036974;28;20581;-81
2024/01/20 02:39:24;;;;;;;66.33;23.57;;;;;;;-145.18;100.00;46906.53;5036810;28;20458;-81
2024/01/20 02:41:50;;;;;;;67.17;24.63;;;;;;;-145.18;100.00;46906.53;5036244;28;20120;-81
2024/01/20 02:44:17;;;;;;;63.60;23.23;;;;;;;-145.18;100.00;46904.56;5036914;28;20030;-81
2024/01/20 02:46:43;;;;;;;59.20;24.42;;;;;;;-145.18;100.00;46902.63;5036497;28;20029;-81
2024/01/20 02:49:08;;;;;;;59.03;22.50;;;;;;;-145.18;100.00;46904.56;5036648;28;20409;-81
2024/01/20 02:51:33;;;;;;;66.40;22.87;;;;;;;-145.18;100.00;46906.53;5018342;28;20482;-81
2024/01/20 02:53:59;;;;;;;61.17;22.53;;;;;;;-145.18;100.00;46904.56;5036544;28;20033;-81
2024/01/20 02:56:24;;;;;;;67.40;24.80;;;;;;;-145.18;100.00;46904.56;5036280;28;20030;-81
2024/01/20 02:58:53;;;;;;;70.97;23.17;;;;;;;-145.18;100.00;46904.56;5036090;28;20052;-81
2024/01/20 03:01:18;;;;;;;63.63;23.90;;;;;;;-145.18;100.00;46904.56;5036131;28;20029;-81
2024/01/20 03:03:45;;;;;;;65.60;23.50;;;;;;;-145.18;100.00;46906.53;5036116;28;20044;-81
2024/01/20 03:06:10;;;;;;;61.20;23.15;;;;;;;-145.18;100.00;46904.56;5036650;28;20135;-81
2024/01/20 03:08:36;;;;;;;65.43;23.63;;;;;;;-145.18;100.00;46906.53;5036480;28;20112;-81
2024/01/20 03:11:01;;;;;;;67.43;22.53;;;;;;;-145.18;100.00;46904.56;5035164;28;20466;-81
2024/01/20 03:13:27;;;;;;;66.77;21.83;;;;;;;-145.18;100.00;46902.63;5035756;28;20034;-81
2024/01/20 03:15:52;;;;;;;62.63;22.50;;;;;;;-145.18;100.00;46906.53;5036649;28;20478;-81
2024/01/20 03:18:17;;;;;;;62.50;21.90;;;;;;;-145.18;100.00;46910.44;5035480;28;20037;-81
2024/01/20 03:20:43;;;;;;;69.87;24.13;;;;;;;-145.18;100.00;46910.44;5035771;28;20113;-81
2024/01/20 03:23:08;;;;;;;72.87;24.07;;;;;;;-145.18;100.00;46906.53;5036588;28;20056;-81
2024/01/20 03:25:33;;;;;;;65.93;24.20;;;;;;;-145.18;100.00;46906.53;5035542;28;20121;-80
2024/01/20 03:27:59;;;;;;;61.80;21.67;;;;;;;-145.18;100.00;46906.53;5035322;28;20095;-81
2024/01/20 03:30:24;;;;;;;47.60;18.57;;;;;;;-145.18;100.00;46906.53;5035638;28;20029;-81
2024/01/20 03:32:51;;;;;;;67.63;24.63;;;;;;;-145.18;100.00;46906.53;5036062;28;20108;-81
2024/01/20 03:35:16;;;;;;;65.25;22.25;;;;;;;-145.18;100.00;46904.56;5035980;28;20040;-80
2024/01/20 03:37:41;;;;;;;66.43;22.93;;;;;;;-145.18;100.00;46904.56;5036091;28;20033;-81
2024/01/20 03:40:07;;;;;;;67.13;24.27;;;;;;;-145.18;100.00;46902.63;5035829;28;20029;-81
2024/01/20 03:42:33;;;;;;;65.35;23.27;;;;;;;-145.18;100.00;46904.56;5035689;28;20072;-81
2024/01/20 03:44:58;;;;;;;61.10;22.50;;;;;;;-145.18;100.00;46910.44;5036042;28;20070;-81
2024/01/20 03:47:24;;;;;;;64.40;23.20;;;;;;;-145.18;100.00;46906.53;5035516;28;20232;-80
2024/01/20 03:49:49;;;;;;;67.20;23.13;;;;;;;-145.18;100.00;46904.56;5035457;28;20109;-81
2024/01/20 03:52:14;;;;;;;69.90;23.33;;;;;;;-145.18;100.00;46902.63;5035129;28;20041;-80
2024/01/20 03:54:40;;;;;;;56.07;21.37;;;;;;;-145.18;100.00;46902.63;5035484;28;20037;-80
2024/01/20 03:57:05;;;;;;;62.40;22.87;;;;;;;-145.18;100.00;46902.63;5034701;28;20030;-80
2024/01/20 03:59:31;;;;;;;64.53;22.13;;;;;;;-145.18;100.00;46902.63;5034973;28;20033;-81
2024/01/20 04:01:56;;;;;;;65.40;23.47;;;;;;;-145.18;100.00;46906.53;5034815;28;20033;-80
2024/01/20 04:04:21;;;;;;;67.80;24.37;;;;;;;-145.18;100.00;46902.63;5034546;28;20443;-80
2024/01/20 04:06:47;;;;;;;69.27;23.40;;;;;;;-145.18;100.00;46904.56;5035721;28;20049;-80
2024/01/20 04:09:12;;;;;;;65.87;23.07;;;;;;;-145.18;100.00;46902.63;5034764;28;20051;-80
2024/01/20 04:11:38;;;;;;;71.17;23.77;;;;;;;-145.18;100.00;46900.66;5034536;28;20037;-80
2024/01/20 04:14:03;;;;;;;59.57;22.00;;;;;;;-145.18;100.00;46906.53;5035094;28;20036;-80
2024/01/20 04:16:30;;;;;;;68.83;24.20;;;;;;;-145.18;100.00;46902.63;5033882;28;20482;-80
2024/01/20 04:18:55;;;;;;;70.60;23.27;;;;;;;-145.18;100.00;46906.53;5034929;28;20125;-80
2024/01/20 04:21:22;;;;;;;62.93;23.53;;;;;;;-145.18;100.00;46906.53;5034700;28;20113;-80
2024/01/20 04:23:49;;;;;;;64.60;22.45;;;;;;;-145.18;100.00;46906.53;5034618;28;20030;-80
2024/01/20 04:26:14;;;;;;;70.03;23.33;;;;;;;-145.18;100.00;46902.63;5034209;28;20421;-80
2024/01/20 04:28:40;;;;;;;70.03;24.13;;;;;;;-145.18;100.00;46902.63;5034430;28;20045;-80
2024/01/20 04:31:05;;;;;;;60.33;23.37;;;;;;;-145.18;100.00;46904.56;5034443;28;20021;-80
2024/01/20 04:33:31;;;;;;;70.93;23.80;;;;;;;-145.18;100.00;46900.66;5034941;28;20037;-80
2024/01/20 04:35:56;;;;;;;66.40;22.23;;;;;;;-145.18;100.00;46904.56;5034860;28;20462;-81
2024/01/20 04:38:21;;;;;;;65.03;21.53;;;;;;;-145.18;100.00;46904.56;5034495;28;20060;-80
2024/01/20 04:40:47;;;;;;;72.00;22.70;;;;;;;-145.18;100.00;46902.63;5034430;28;20470;-81
2024/01/20 04:43:13;;;;;;;65.18;23.98;;;;;;;-145.18;100.00;46902.63;5034424;28;20540;-80
2024/01/20 04:45:39;;;;;;;71.30;23.30;;;;;;;-145.18;100.00;46906.53;5033814;28;20046;-80
2024/01/20 04:48:04;;;;;;;66.87;23.63;;;;;;;-145.18;100.00;46904.56;5033846;28;20033;-80
2024/01/20 04:50:30;;;;;;;71.53;24.60;;;;;;;-145.18;100.00;46904.56;5034571;28;20037;-80
2024/01/20 04:52:55;;;;;;;76.27;24.87;;;;;;;-145.18;100.00;46906.53;5034044;28;20474;-80
2024/01/20 04:55:21;;;;;;;69.33;24.27;;;;;;;-145.18;100.00;46908.47;5034295;28;20088;-80
2024/01/20 04:57:46;;;;;;;77.37;23.67;;;;;;;-145.18;100.00;46912.38;5034235;28;20029;-80
2024/01/20 05:00:12;;;;;;;64.27;22.00;;;;;;;-145.18;100.00;46910.44;5034044;28;20375;-80
2024/01/20 05:02:38;;;;;;;66.15;22.05;;;;;;;-145.18;100.00;46902.63;5033891;28;20032;-80
2024/01/20 05:05:04;;;;;;;55.23;20.67;;;;;;;-145.18;100.00;46912.38;5034270;28;20124;-80
2024/01/20 05:07:29;;;;;;;57.40;20.57;;;;;;;-145.18;100.00;46910.44;5033812;28;20096;-80
2024/01/20 05:09:55;;;;;;;74.23;22.30;;;;;;;-145.18;100.00;46910.44;5032283;28;20041;-80
2024/01/20 05:12:20;;;;;;;57.30;21.10;;;;;;;-145.18;100.00;46908.47;5033781;28;20478;-80
2024/01/20 05:14:45;;;;;;;59.47;22.17;;;;;;;-145.18;100.00;46906.53;5033430;28;20037;-81
2024/01/20 05:17:11;;;;;;;58.93;20.33;;;;;;;-145.18;100.00;46900.66;5033968;28;20061;-81
2024/01/20 05:19:39;;;;;;;62.13;19.00;;;;;;;-145.18;100.00;46906.53;5034319;28;20045;-80
2024/01/20 05:22:05;;;;;;;56.33;19.52;;;;;;;-145.18;100.00;46904.56;5034205;28;20071;-80
2024/01/20 05:24:30;;;;;;;62.77;19.60;;;;;;;-145.18;100.00;46906.53;5033704;28;20065;-80
2024/01/20 05:26:56;;;;;;;58.67;20.00;;;;;;;-145.18;100.00;46904.56;5034014;28;20030;-80
2024/01/20 05:29:21;;;;;;;47.47;18.03;;;;;;;-145.18;100.00;46908.47;5034122;28;20033;-81
2024/01/20 05:31:46;;;;;;;60.93;19.50;;;;;;;-145.18;100.00;46906.53;5033519;28;20075;-80
2024/01/20 05:34:12;;;;;;;55.67;19.33;;;;;;;-145.18;100.00;46910.44;5039534;28;20036;-80
2024/01/20 05:36:37;;;;;;;56.33;20.83;;;;;;;-145.18;100.00;46910.44;5040428;28;20025;-81
2024/01/20 05:39:04;;;;;;;59.73;19.73;;;;;;;-145.18;100.00;46908.47;5039990;28;20478;-80
2024/01/20 05:41:29;;;;;;;60.15;21.50;;;;;;;-145.18;100.00;46910.44;5039790;28;20457;-80
2024/01/20 05:43:54;;;;;;;60.27;20.10;;;;;;;-145.18;100.00;46910.44;5040058;28;20168;-81
2024/01/20 05:46:20;;;;;;;59.60;21.23;;;;;;;-145.18;100.00;46908.47;5040005;28;20036;-80
2024/01/20 05:48:45;;;;;;;57.13;18.53;;;;;;;-145.18;100.00;46914.34;5039945;28;20038;-80
2024/01/20 05:51:11;;;;;;;52.93;18.07;;;;;;;-145.18;100.00;46908.47;5040327;28;20056;-80
2024/01/20 05:53:36;;;;;;;52.83;19.07;;;;;;;-145.18;100.00;46908.47;5022113;28;20038;-80
2024/01/20 05:56:01;;;;;;;55.17;19.90;;;;;;;-145.18;100.00;46906.53;5040434;28;20160;-80
2024/01/20 05:58:27;;;;;;;56.80;20.03;;;;;;;-145.18;100.00;46908.47;5040216;28;20399;-80
2024/01/20 06:00:52;;;;;;;59.50;19.50;;;;;;;-145.18;100.00;46904.56;5039602;28;20122;-80
2024/01/20 06:03:18;;;;;;;55.40;17.93;;;;;;;-145.18;100.00;46908.47;5040229;28;20029;-80
2024/01/20 06:05:43;;;;;;;49.57;18.13;;;;;;;-145.18;100.00;46904.56;5039581;28;20057;-81
2024/01/20 06:08:08;;;;;;;54.40;19.13;;;;;;;-145.18;100.00;46908.47;5039946;28;20048;-80
2024/01/20 06:10:34;;;;;;;54.90;19.93;;;;;;;-145.18;100.00;46906.53;5040433;28;20140;-80
2024/01/20 06:12:59;;;;;;;64.13;19.57;;;;;;;-145.18;100.00;46906.53;5040162;28;20064;-81
2024/01/20 06:15:24;;;;;;;53.93;18.30;;;;;;;-145.18;100.00;46910.44;5039577;28;20470;-81
2024/01/20 06:17:50;;;;;;;58.20;19.20;;;;;;;-145.18;100.00;46902.63;5040048;28;20402;-80
2024/01/20 06:20:15;;;;;;;55.23;19.20;;;;;;;-145.18;100.00;46902.63;5039764;28;20056;-80
2024/01/20 06:22:41;;;;;;;57.57;17.37;;;;;;;-145.18;100.00;46904.56;5039982;28;20077;-80
2024/01/20 06:25:06;;;;;;;60.23;17.83;;;;;;;-145.18;100.00;46908.47;5039956;28;20522;-80
2024/01/20 06:27:32;;;;;;;55.87;18.73;;;;;;;-145.18;100.00;46902.63;5039399;28;20037;-80
2024/01/20 06:29:58;;;;;;;60.27;19.00;;;;;;;-145.18;100.00;46904.56;5040145;28;20041;-80
2024/01/20 06:32:23;;;;;;;57.03;15.90;;;;;;;-145.18;100.00;46906.53;5039837;28;20065;-80
2024/01/20 06:34:49;;;;;;;55.23;19.17;;;;;;;-145.18;100.00;46908.47;5039444;28;20087;-80
2024/01/20 06:37:15;;;;;;;54.63;18.65;;;;;;;-145.18;100.00;46906.53;5039804;28;20034;-81
2024/01/20 06:39:41;;;;;;;58.07;18.60;;;;;;;-145.18;100.00;46906.53;5039528;28;20045;-80
2024/01/20 06:42:07;;;;;;;47.45;18.25;;;;;;;-145.18;100.00;46908.47;5040010;28;20081;-80
2024/01/20 06:44:33;;;;;;;53.80;18.67;;;;;;;-145.18;100.00;46906.53;5037383;28;20049;-80
2024/01/20 06:46:58;;;;;;;57.33;18.73;;;;;;;-145.18;100.00;46908.47;5036709;28;20037;-80
2024/01/20 06:49:23;;;;;;;60.73;17.07;;;;;;;-145.18;100.00;46906.53;5036035;28;20037;-81
2024/01/20 06:51:49;;;;;;;50.30;16.47;;;;;;;-145.18;100.00;46904.56;5036411;28;20513;-81
2024/01/20 06:54:14;;;;;;;52.30;17.57;;;;;;;-145.18;100.00;46910.44;5037163;28;20374;-80
2024/01/20 06:56:39;;;;;;;55.70;17.90;;;;;;;-145.18;100.00;46910.44;5035936;28;20108;-81
2024/01/20 06:59:05;;;;;;;51.13;17.67;;;;;;;-145.18;100.00;46910.44;5035808;28;20030;-80
2024/01/20 07:01:31;;;;;;;57.23;18.30;;;;;;;-145.18;100.00;46912.38;5036677;28;20481;-80
2024/01/20 07:03:57;;;;;;;52.53;17.40;;;;;;;-145.18;100.00;46914.34;5036373;28;20112;-81
2024/01/20 07:06:25;;;;;;;57.05;18.92;;;;;;;-145.18;100.00;46910.44;5036683;28;20108;-80
2024/01/20 07:08:51;;;;;;;52.75;16.15;;;;;;;-145.18;100.00;46912.38;5036311;28;20475;-80
2024/01/20 07:11:16;;;;;;;52.20;16.83;;;;;;;-145.18;100.00;46910.44;5036288;28;20036;-81
2024/01/20 07:13:42;;;;;;;56.13;19.17;;;;;;;-145.18;100.00;46912.38;5035603;28;20037;-80
2024/01/20 07:16:11;;;;;;;56.87;18.33;;;;;;;-145.18;100.00;46914.34;5018822;28;20040;-80
2024/01/20 07:18:37;;;;;;;50.28;17.73;;;;;;;-145.18;100.00;46910.44;5036334;28;20057;-81
2024/01/20 07:21:03;;;;;;;57.75;19.17;;;;;;;-145.18;100.00;46910.44;5035836;28;20037;-81
2024/01/20 07:23:29;;;;;;;53.15;18.50;;;;;;;-145.18;100.00;46920.19;5035693;28;20470;-81
2024/01/20 07:25:55;;;;;;;50.38;16.83;;;;;;;-145.18;100.00;46918.25;5035939;28;20433;-82
2024/01/20 07:28:20;;;;;;;53.03;18.20;;;;;;;-145.18;100.00;46918.25;5035801;28;20037;-81
2024/01/20 07:30:46;;;;;;;54.97;16.87;;;;;;;-145.18;100.00;46918.25;5035670;28;20109;-81
2024/01/20 07:33:12;;;;;;;51.00;17.07;;;;;;;-145.18;100.00;46920.19;5035858;28;20044;-81
2024/01/20 07:35:37;;;;;;;45.10;16.93;;;;;;;-145.18;100.00;46912.38;5035836;28;20041;-81
2024/01/20 07:38:03;;;;;;;49.67;17.23;;;;;;;-145.18;100.00;46916.28;5035399;28;20065;-81
2024/01/20 07:40:29;;;;;;;46.38;17.15;;;;;;;-145.18;100.00;46914.34;5034082;28;20026;-81
2024/01/20 07:42:54;;;;;;;58.80;18.27;;;;;;;-145.18;100.00;46912.38;5035429;28;20034;-82
2024/01/20 07:45:20;;;;;;;51.40;18.43;;;;;;;-145.18;100.00;46910.44;5035390;28;20030;-82
2024/01/20 07:47:46;;;;;;;54.40;19.50;;;;;;;-145.18;100.00;46912.38;5035141;28;20064;-82
2024/01/20 07:50:12;;;;;;;55.22;17.90;;;;;;;-145.18;100.00;46914.34;5035134;28;20400;-82
2024/01/20 07:52:38;;;;;;;55.63;19.27;;;;;;;-145.18;100.00;46912.38;5035109;28;20040;-82
2024/01/20 07:55:04;;;;;;;56.17;19.08;;;;;;;-145.18;100.00;46914.34;5034688;28;20398;-82
2024/01/20 07:57:29;;;;;;;55.47;19.42;;;;;;;-145.18;100.00;46912.38;5034614;28;20060;-82
2024/01/20 07:59:55;;;;;;;55.17;18.87;;;;;;;-145.18;100.00;46906.53;5035460;28;20040;-82
2024/01/20 08:02:20;;;;;;;61.67;19.50;;;;;;;-145.18;100.00;46906.53;5035209;28;20025;-82
2024/01/20 08:04:45;;;;;;;55.07;19.53;;;;;;;-145.18;100.00;46904.56;5035211;28;20112;-82
2024/01/20 08:07:11;;;;;;;61.67;19.57;;;;;;;-145.18;100.00;46906.53;5035554;28;20064;-81
2024/01/20 08:09:36;;;;;;;57.83;19.43;;;;;;;-145.18;100.00;46906.53;5035006;28;20079;-82
2024/01/20 08:12:02;;;;;;;57.63;19.07;;;;;;;-145.18;100.00;46906.53;5033551;28;20037;-82
2024/01/20 08:14:27;;;;;;;53.70;19.43;;;;;;;-145.18;100.00;46900.66;5034363;28;20025;-82
2024/01/20 08:16:52;;;;;;;49.50;16.10;;;;;;;-145.18;100.00;46902.63;5034404;28;20033;-82
2024/01/20 08:19:18;;;;;;;61.20;21.10;;;;;;;-145.18;100.00;46906.53;5035467;28;20029;-82
2024/01/20 08:21:43;;;;;;;60.83;20.17;;;;;;;-145.18;100.00;46902.63;5033214;28;20064;-82
2024/01/20 08:24:08;;;;;;;61.20;19.17;;;;;;;-145.18;100.00;46904.56;5034405;28;20046;-81
2024/01/20 08:26:34;;;;;;;44.70;17.63;;;;;;;-145.18;100.00;46902.63;5034690;28;20033;-82
2024/01/20 08:28:59;;;;;;;64.27;20.73;;;;;;;-145.18;100.00;46902.63;5034658;28;20120;-82
2024/01/20 08:31:25;;;;;;;60.60;19.27;;;;;;;-145.18;100.00;46902.63;5034316;28;20030;-82
2024/01/20 08:33:50;;;;;;;59.70;19.53;;;;;;;-145.18;100.00;46900.66;5017085;28;20029;-81
2024/01/20 08:36:16;;;;;;;52.50;19.33;;;;;;;-145.18;100.00;46902.63;5034266;28;20493;-81
2024/01/20 08:38:41;;;;;;;63.70;21.40;;;;;;;-145.18;100.00;46908.47;5032569;28;20068;-82
2024/01/20 08:41:10;;;;;;;62.80;24.53;;;;;;;-145.18;100.00;46906.53;5033011;28;20157;-82
2024/01/20 08:43:43;;;;;;;59.78;21.75;;;;;;;-145.18;100.00;46906.53;5034073;28;20040;-82
2024/01/20 08:46:09;;;;;;;61.15;20.80;;;;;;;-145.18;100.00;46904.56;5034345;28;20037;-82
2024/01/20 08:48:34;;;;;;;57.60;20.80;;;;;;;-145.18;100.00;46900.66;5033628;28;20048;-82
2024/01/20 08:51:00;;;;;;;57.57;21.07;;;;;;;-145.18;100.00;46906.53;5034463;28;20029;-82
2024/01/20 08:53:29;;;;;;;58.13;21.47;;;;;;;-145.18;100.00;46908.47;5034066;28;20084;-82
2024/01/20 08:55:55;;;;;;;50.15;19.77;;;;;;;-145.18;100.00;46906.53;5034506;28;20022;-81
2024/01/20 08:58:20;;;;;;;50.23;19.77;;;;;;;-145.18;100.00;46902.63;5034076;28;20044;-81
2024/01/20 09:00:46;;;;;;;59.90;21.37;;;;;;;-145.18;100.00;46904.56;5033989;28;20033;-82
2024/01/20 09:03:11;;;;;;;55.97;20.87;;;;;;;-145.18;100.00;46900.66;5034051;28;20037;-82
2024/01/20 09:05:37;;;;;;;59.10;20.00;;;;;;;-145.18;100.00;46896.75;5033794;28;20053;-81
2024/01/20 09:08:05;;;;;;;57.67;20.80;;;;;;;-145.18;100.00;46900.66;5033667;28;20044;-82
2024/01/20 09:10:30;;;;;;;61.70;20.40;;;;;;;-145.18;100.00;46896.75;5033631;28;20072;-82
2024/01/20 09:12:55;;;;;;;51.17;19.90;;;;;;;-145.18;100.00;46894.81;5034002;28;20065;-82
2024/01/20 09:15:21;;;;;;;57.80;22.63;;;;;;;-145.18;100.00;46894.81;5033803;28;20037;-82
2024/01/20 09:17:47;;;;;;;63.70;21.93;;;;;;;-145.18;100.00;46894.81;5033788;28;20076;-81
2024/01/20 09:20:12;;;;;;;57.80;21.10;;;;;;;-145.18;100.00;46894.81;5033132;28;20261;-82
2024/01/20 09:22:38;;;;;;;60.27;21.70;;;;;;;-145.18;100.00;46894.81;5033528;28;20037;-82
2024/01/20 09:25:03;;;;;;;60.23;21.80;;;;;;;-145.18;100.00;46888.94;5033418;28;20076;-82
2024/01/20 09:27:29;;;;;;;57.03;21.53;;;;;;;-145.18;100.00;46888.94;5032191;28;20389;-81
2024/01/20 09:29:55;;;;;;;54.30;20.60;;;;;;;-145.18;100.00;46888.94;5033739;28;20036;-83
2024/01/20 09:32:20;;;;;;;52.67;20.08;;;;;;;-145.18;100.00;46892.84;5033324;28;20490;-84
2024/01/20 09:34:46;;;;;;;50.87;20.87;;;;;;;-145.18;100.00;46890.91;5033458;28;20080;-83
2024/01/20 09:37:11;;;;;;;52.80;21.57;;;;;;;-145.18;100.00;46888.94;5033215;28;20041;-82
2024/01/20 09:39:36;;;;;;;52.33;19.90;;;;;;;-145.18;100.00;46887.00;5033622;28;20470;-81
2024/01/20 09:42:02;;;;;;;51.93;21.40;;;;;;;-145.18;100.00;46888.94;5033265;28;20072;-81
2024/01/20 09:44:27;;;;;;;51.20;18.90;;;;;;;-145.18;100.00;46885.03;5032965;28;20053;-84
2024/01/20 09:46:53;;;;;;;49.17;20.90;;;;;;;-145.18;100.00;46887.00;5033371;28;20052;-84
2024/01/20 09:49:18;;;;;;;57.27;19.87;;;;;;;-145.18;100.00;46887.00;5033845;28;20493;-82
2024/01/20 09:51:51;;;;;;;49.17;20.30;;;;;;;-145.18;100.00;46883.09;5033280;28;20073;-84
2024/01/20 09:54:19;;;;;;;58.58;21.25;;;;;;;-145.18;100.00;46885.03;5033493;28;20034;-83
2024/01/20 09:56:45;;;;;;;54.45;19.92;;;;;;;-145.18;100.00;46885.03;5033306;28;20037;-83
2024/01/20 09:59:14;;;;;;;53.77;20.17;;;;;;;-145.18;100.00;46885.03;5032841;28;20434;-82
2024/01/20 10:01:40;;;;;;;56.72;20.45;;;;;;;-145.18;100.00;46885.03;5033455;28;20105;-83
2024/01/20 10:04:08;;;;;;;50.42;19.35;;;;;;;-145.18;100.00;46881.13;5032849;28;20033;-83
2024/01/20 10:06:33;;;;;;;50.20;20.10;;;;;;;-145.18;100.00;46883.09;5034010;28;20429;-82
2024/01/20 10:08:59;;;;;;;52.03;19.73;;;;;;;-145.18;100.00;46885.03;5033055;28;20053;-83
2024/01/20 10:11:24;;;;;;;49.47;19.50;;;;;;;-145.18;100.00;46879.19;5033211;28;20044;-84
2024/01/20 10:13:50;;;;;;;54.03;21.53;;;;;;;-145.18;100.00;46879.19;5032718;28;20041;-83
2024/01/20 10:16:15;;;;;;;47.70;18.93;;;;;;;-145.18;100.00;46879.19;5033634;28;20025;-83
2024/01/20 10:18:40;;;;;;;48.13;18.73;;;;;;;-145.18;100.00;46879.19;5033361;28;20067;-84
2024/01/20 10:21:06;;;;;;;47.30;18.17;;;;;;;-145.18;100.00;46875.28;5036500;28;20113;-82
2024/01/20 10:23:37;;;;;;;47.43;17.03;;;;;;;-145.18;100.00;46875.28;5036964;28;20382;-82
2024/01/20 10:26:05;;;;;;;46.78;17.40;;;;;;;-145.18;100.00;46877.22;5036813;28;20091;-86
2024/01/20 10:28:31;;;;;;;44.30;17.40;;;;;;;-145.18;100.00;46875.28;5035792;28;20470;-85
2024/01/20 10:30:57;;;;;;;44.15;18.50;;;;;;;-145.18;100.00;46873.31;5036580;28;20037;-81
2024/01/20 10:33:23;;;;;;;41.87;17.20;;;;;;;-145.18;100.00;46875.28;5037402;28;20090;-81
2024/01/20 10:35:54;;;;;;;52.57;19.30;;;;;;;-145.18;100.00;46869.41;5036360;28;20030;-82
2024/01/20 10:38:23;;;;;;;43.65;16.92;;;;;;;-145.18;100.00;46875.28;5036535;28;20282;-81
2024/01/20 10:40:51;;;;;;;45.85;19.67;;;;;;;-145.18;100.00;46867.44;5036471;28;20444;-82
2024/01/20 10:43:17;;;;;;;42.17;17.23;;;;;;;-145.18;100.00;46871.38;5036514;28;20033;-82
2024/01/20 10:45:59;;;;;;;46.22;18.08;;;;;;;-145.18;100.00;46871.38;5036276;28;20033;-82
2024/01/20 10:48:26;;;;;;;43.45;17.95;;;;;;;-145.18;100.00;46873.31;5036701;28;20044;-83